Terminal Aerodrome Forecast
Issued by NWS

Home | Current Version | Previous Version | Text Only | Print | Product List | Glossary On
Versions: 1 2 3 4 5 6 7 8 9 10 11 12 13 14 15 16 17 18 19 20 21 22 23 24 25 26
000
FTUS44 KFWD 201100
TAFAFW
TAF
KAFW 201122Z 2012/2112 17012KT P6SM VCSH SCT060 BKN150
     FM202200 17014KT P6SM VCTS BKN050CB
     FM210200 18010KT P6SM BKN040=

USA.gov is the U.S. government's official web portal to all federal, state and local government web resources and services.